KROW/ROW METAR and TAF weather

Enter ICAO airport designator
Station Type Date Time Source
KROW METAR 2021/08/02 00:51 UTC NOAA

KROW 020051Z 07011KT 10SM CLR 28/17 A3017 RMK AO2 LTG DSNT SE AND W SLP153 T02780167


Station Type Date Time Source
KROW Decoded METAR 2021/08/02 00:51 UTC NOAA

ROSWELL INDUSTRIAL AIR CENTR, NM, United States (KROW) 33-18N 104-32W 1112M
Aug 01, 2021 - 08:51 PM EDT / 2021.08.02 0051 UTC
Wind: from the ENE (070 degrees) at 13 MPH (11 KT):0
Visibility: 10 mile(s):0
Sky conditions: clear
Weather: Lightning observed
Temperature: 82.0 F (27.8 C)
Dew Point: 62.1 F (16.7 C)
Relative Humidity: 50%
Pressure (altimeter): 30.17 in. Hg (1021 hPa)
ob: KROW 020051Z 07011KT 10SM CLR 28/17 A3017 RMK AO2 LTG DSNT SE AND W SLP153 T02780167
cycle: 1

Station Type Date Time Source
KROW TAF 2021/08/01 18:48 UTC NOAA

TAF KROW 011747Z 0118/0218 01011KT P6SM VCSH SCT025 BKN040
TEMPO 0123/0202 VRB18G30KT 6SM -TSRA BKN025CB
FM020900 VRB06KT P6SM SCT028 BKN035

Example: see airport list